Time;durP1;ratioP1;P1;durP2;ratioP2;P2;SDS_P1;SDS_P2;PMS_P1;PMS_P2;Temp;Humidity;BMP_temperature;BMP_pressure;BME280_temperature;BME280_humidity;BME280_pressure;Samples;Min_cycle;Max_cycle;Signal;HPM_P1;HPM_P2
2022/04/03 00:01:10;;;;;;;;;;;-0.70;99.90;;;;;;5000383;28;19928;-76
2022/04/03 00:03:35;;;;;;;;;;;-0.70;99.90;;;;;;4979764;28;19975;-76
2022/04/03 00:06:01;;;;;;;;;;;-0.70;99.90;;;;;;4995331;28;19925;-76
2022/04/03 00:08:28;;;;;;;;;;;-0.80;99.90;;;;;;5004319;28;19928;-76
2022/04/03 00:10:54;;;;;;;;;;;-0.80;99.90;;;;;;4995974;28;20016;-76
2022/04/03 00:13:19;;;;;;;;;;;-0.80;99.90;;;;;;4996359;28;19969;-76
2022/04/03 00:15:45;;;;;;;;;;;-0.80;99.90;;;;;;4995670;28;20332;-76
2022/04/03 00:18:11;;;;;;;;;;;-0.90;99.90;;;;;;5003505;28;19921;-76
2022/04/03 00:20:37;;;;;;;;;;;-0.80;99.90;;;;;;5001628;28;20015;-76
2022/04/03 00:23:03;;;;;;;;;;;-0.90;99.90;;;;;;4996101;28;19930;-76
2022/04/03 00:25:28;;;;;;;;;;;-0.90;99.90;;;;;;4994959;28;19922;-76
2022/04/03 00:27:54;;;;;;;;;;;-0.90;99.90;;;;;;4979411;28;20188;-76
2022/04/03 00:30:19;;;;;;;;;;;-0.90;99.90;;;;;;4995262;28;19922;-76
2022/04/03 00:32:45;;;;;;;;;;;-0.90;99.90;;;;;;4995469;28;19921;-76
2022/04/03 00:35:11;;;;;;;;;;;-0.90;99.90;;;;;;5002704;28;19941;-76
2022/04/03 00:37:36;;;;;;;;;;;-1.00;99.90;;;;;;4999969;28;20380;-76
2022/04/03 00:40:03;;;;;;;;;;;-0.90;99.90;;;;;;4995832;28;19925;-76
2022/04/03 00:42:28;;;;;;;;;;;-1.00;99.90;;;;;;4995253;28;19925;-76
2022/04/03 00:45:02;;;;;;;;;;;-0.90;99.90;;;;;;4995799;28;19992;-76
2022/04/03 00:47:31;;;;;;;;;;;-0.90;99.90;;;;;;4994643;28;19925;-76
2022/04/03 00:49:56;;;;;;;;;;;-0.80;99.90;;;;;;4995996;28;19921;-76
2022/04/03 00:52:23;;;;;;;;;;;-0.60;99.90;;;;;;4995722;28;20351;-76
2022/04/03 00:54:48;;;;;;;;;;;-0.60;99.90;;;;;;4994729;28;19964;-76
2022/04/03 00:57:24;;;;;;;;;;;-0.60;99.90;;;;;;4977935;28;19975;-76
2022/04/03 00:59:50;;;;;;;;;;;-0.60;99.90;;;;;;4995770;28;19932;-76
2022/04/03 01:02:16;;;;;;;;;;;-0.60;99.90;;;;;;5014677;28;19925;-76
2022/04/03 01:04:44;;;;;;;;;;;-0.50;99.90;;;;;;5014881;28;19925;-76
2022/04/03 01:07:10;;;;;;;;;;;-0.60;99.90;;;;;;5000643;28;19921;-76
2022/04/03 01:09:36;;;;;;;;;;;-0.60;99.90;;;;;;4975735;28;19922;-76
2022/04/03 01:12:05;;;;;;;;;;;-0.60;99.90;;;;;;4994995;28;19921;-76
2022/04/03 01:14:35;;;;;;;;;;;-0.60;99.90;;;;;;4995481;28;19925;-76
2022/04/03 01:17:01;;;;;;;;;;;-0.60;99.90;;;;;;4975939;28;19926;-76
2022/04/03 01:19:27;;;;;;;;;;;-0.70;99.90;;;;;;5003134;28;19928;-76
2022/04/03 01:21:52;;;;;;;;;;;-0.80;99.90;;;;;;4995327;28;19933;-76
2022/04/03 01:24:21;;;;;;;;;;;-0.90;99.90;;;;;;4994836;28;19972;-76
2022/04/03 01:26:47;;;;;;;;;;;-0.90;99.90;;;;;;4992356;28;19976;-76
2022/04/03 01:29:13;;;;;;;;;;;-1.10;99.90;;;;;;4978056;28;19925;-76
2022/04/03 01:31:38;;;;;;;;;;;-1.10;99.90;;;;;;5014777;28;20363;-76
2022/04/03 01:34:04;;;;;;;;;;;-1.10;99.90;;;;;;5014792;28;19921;-76
2022/04/03 01:36:29;;;;;;;;;;;-1.00;99.90;;;;;;4989596;28;19922;-76
2022/04/03 01:38:55;;;;;;;;;;;-1.00;99.90;;;;;;4994245;28;20342;-76
2022/04/03 01:41:21;;;;;;;;;;;-1.00;99.90;;;;;;4995076;28;19933;-76
2022/04/03 01:43:46;;;;;;;;;;;-0.90;99.90;;;;;;4979197;28;19921;-76
2022/04/03 01:46:41;;;;;;;;;;;-0.90;99.90;;;;;;4977371;28;19921;-76
2022/04/03 01:49:13;;;;;;;;;;;-0.90;99.90;;;;;;4994467;28;20322;-76
2022/04/03 01:51:57;;;;;;;;;;;-0.80;99.90;;;;;;4997733;28;19968;-76
2022/04/03 01:54:34;;;;;;;;;;;-0.90;99.90;;;;;;4993641;28;20292;-76
2022/04/03 01:57:00;;;;;;;;;;;-1.00;99.90;;;;;;4983536;28;19922;-76
2022/04/03 01:59:26;;;;;;;;;;;-1.00;99.90;;;;;;5002408;28;19979;-76
2022/04/03 02:01:51;;;;;;;;;;;-1.00;99.90;;;;;;4994249;28;19925;-77
2022/04/03 02:04:19;;;;;;;;;;;-1.00;99.90;;;;;;4995022;28;20236;-76
2022/04/03 02:06:45;;;;;;;;;;;-1.00;99.90;;;;;;4991788;28;19921;-76
2022/04/03 02:09:10;;;;;;;;;;;-1.00;99.90;;;;;;4992338;28;20520;-76
2022/04/03 02:11:38;;;;;;;;;;;-0.80;99.90;;;;;;5014067;28;19921;-76
2022/04/03 02:14:05;;;;;;;;;;;-1.00;99.90;;;;;;5013857;28;19925;-76
2022/04/03 02:16:30;;;;;;;;;;;-1.00;99.90;;;;;;5006199;28;20291;-76
2022/04/03 02:19:26;;;;;;;;;;;-0.90;99.90;;;;;;4993370;28;19922;-76
2022/04/03 02:21:57;;;;;;;;;;;-0.90;99.90;;;;;;4993956;28;19925;-76
2022/04/03 02:24:48;;;;;;;;;;;-0.80;99.90;;;;;;4994641;28;19932;-76
2022/04/03 02:27:52;;;;;;;;;;;-0.70;99.90;;;;;;4980594;28;20012;-76
2022/04/03 02:30:31;;;;;;;;;;;-0.70;99.90;;;;;;4963380;28;19944;-76
2022/04/03 02:33:05;;;;;;;;;;;-0.50;99.90;;;;;;4975089;28;20299;-76
2022/04/03 02:35:31;;;;;;;;;;;-0.50;99.90;;;;;;4980761;28;20072;-76
2022/04/03 02:37:57;;;;;;;;;;;-0.30;99.90;;;;;;4977294;28;20450;-76
2022/04/03 02:40:33;;;;;;;;;;;-0.20;99.90;;;;;;4999560;28;19921;-76
2022/04/03 02:43:13;;;;;;;;;;;-0.20;99.90;;;;;;4993133;28;19925;-76
2022/04/03 02:45:57;;;;;;;;;;;-0.20;99.90;;;;;;4994109;28;20316;-77
2022/04/03 02:48:22;;;;;;;;;;;-0.10;99.90;;;;;;5001928;28;19929;-77
2022/04/03 02:50:50;;;;;;;;;;;-0.10;99.90;;;;;;4993729;28;19922;-77
2022/04/03 02:53:19;;;;;;;;;;;0.00;99.90;;;;;;4994184;28;20260;-78
2022/04/03 02:55:47;;;;;;;;;;;-0.10;99.90;;;;;;4993427;28;20397;-78
2022/04/03 02:58:13;;;;;;;;;;;0.00;99.90;;;;;;4996394;28;19933;-78
2022/04/03 03:00:38;;;;;;;;;;;0.00;99.90;;;;;;5013899;28;19925;-78
2022/04/03 03:03:06;;;;;;;;;;;0.00;99.90;;;;;;5013471;28;19965;-77
2022/04/03 03:05:32;;;;;;;;;;;0.00;99.90;;;;;;5013549;28;20379;-78
2022/04/03 03:07:58;;;;;;;;;;;0.00;99.90;;;;;;4993637;28;19967;-78
2022/04/03 03:10:24;;;;;;;;;;;0.10;99.90;;;;;;4993950;28;20031;-78
2022/04/03 03:12:52;;;;;;;;;;;0.20;99.90;;;;;;5013694;28;20132;-78
2022/04/03 03:15:19;;;;;;;;;;;0.30;99.90;;;;;;5007470;28;20015;-78
2022/04/03 03:17:45;;;;;;;;;;;0.40;99.90;;;;;;4994592;28;19977;-78
2022/04/03 03:20:11;;;;;;;;;;;0.40;99.90;;;;;;4992828;28;19928;-78
2022/04/03 03:22:37;;;;;;;;;;;0.50;99.90;;;;;;5011123;28;19929;-78
2022/04/03 03:25:05;;;;;;;;;;;0.60;99.90;;;;;;4993334;28;19925;-77
2022/04/03 03:27:30;;;;;;;;;;;0.70;99.90;;;;;;4993610;28;21747;-77
2022/04/03 03:29:56;;;;;;;;;;;0.70;99.90;;;;;;4996900;28;19929;-77
2022/04/03 03:32:23;;;;;;;;;;;0.80;99.90;;;;;;5002545;28;19922;-77
2022/04/03 03:34:50;;;;;;;;;;;0.80;99.90;;;;;;4997304;28;19922;-77
2022/04/03 03:37:15;;;;;;;;;;;0.80;99.90;;;;;;4997692;28;19921;-77
2022/04/03 03:39:41;;;;;;;;;;;0.70;99.90;;;;;;5000062;28;19972;-78
2022/04/03 03:42:06;;;;;;;;;;;0.70;99.90;;;;;;4992035;28;19925;-77
2022/04/03 03:44:32;;;;;;;;;;;0.60;99.90;;;;;;4996377;28;19921;-78
2022/04/03 03:46:57;;;;;;;;;;;0.50;99.90;;;;;;4995815;28;19921;-77
2022/04/03 03:49:23;;;;;;;;;;;0.40;99.90;;;;;;5014425;28;19943;-77
2022/04/03 03:51:48;;;;;;;;;;;0.40;99.90;;;;;;5014832;28;20434;-77
2022/04/03 03:54:14;;;;;;;;;;;0.30;99.90;;;;;;4996938;28;20021;-78
2022/04/03 03:56:40;;;;;;;;;;;0.30;99.90;;;;;;4995272;28;20012;-78
2022/04/03 03:59:05;;;;;;;;;;;0.40;99.90;;;;;;4988741;28;19928;-78
2022/04/03 04:01:31;;;;;;;;;;;0.40;99.90;;;;;;4996485;28;19925;-78
2022/04/03 04:03:56;;;;;;;;;;;0.40;99.90;;;;;;4996668;28;19921;-78
2022/04/03 04:06:22;;;;;;;;;;;0.40;99.90;;;;;;4995848;28;20343;-78
2022/04/03 04:08:47;;;;;;;;;;;0.40;99.90;;;;;;4996062;28;19925;-78
2022/04/03 04:11:13;;;;;;;;;;;0.40;99.90;;;;;;5015563;28;19925;-78
2022/04/03 04:13:39;;;;;;;;;;;0.40;99.90;;;;;;5016259;28;19920;-77
2022/04/03 04:16:05;;;;;;;;;;;0.50;99.90;;;;;;5010542;28;20034;-77
2022/04/03 04:18:30;;;;;;;;;;;0.50;99.90;;;;;;4995810;28;19925;-78
2022/04/03 04:20:56;;;;;;;;;;;0.60;99.90;;;;;;4996659;28;19921;-78
2022/04/03 04:23:22;;;;;;;;;;;0.60;99.90;;;;;;4999640;28;19956;-77
2022/04/03 04:25:47;;;;;;;;;;;0.70;99.90;;;;;;5013250;28;19925;-78
2022/04/03 04:28:13;;;;;;;;;;;0.70;99.90;;;;;;5004377;28;19925;-78
2022/04/03 04:30:39;;;;;;;;;;;0.70;99.90;;;;;;5015615;28;19925;-77
2022/04/03 04:33:08;;;;;;;;;;;0.70;99.90;;;;;;5015532;28;19932;-77
2022/04/03 04:35:34;;;;;;;;;;;0.70;99.90;;;;;;5013689;28;19925;-78
2022/04/03 04:38:00;;;;;;;;;;;0.80;99.90;;;;;;4995767;28;19921;-78
2022/04/03 04:40:25;;;;;;;;;;;0.80;99.90;;;;;;4995593;28;19929;-78
2022/04/03 04:42:51;;;;;;;;;;;0.80;99.90;;;;;;4994317;28;20376;-78
2022/04/03 04:45:17;;;;;;;;;;;0.80;99.90;;;;;;4995786;28;19922;-77
2022/04/03 04:47:42;;;;;;;;;;;0.90;99.90;;;;;;4999926;28;19921;-77
2022/04/03 04:50:08;;;;;;;;;;;0.90;99.90;;;;;;4996154;28;19922;-78
2022/04/03 04:52:35;;;;;;;;;;;0.90;99.90;;;;;;4995354;28;20255;-78
2022/04/03 04:55:01;;;;;;;;;;;0.80;99.90;;;;;;4996137;28;19921;-78
2022/04/03 04:57:26;;;;;;;;;;;0.80;99.90;;;;;;4994028;28;20422;-78
2022/04/03 04:59:52;;;;;;;;;;;0.80;99.90;;;;;;4995484;28;20009;-77
2022/04/03 05:02:17;;;;;;;;;;;0.80;99.90;;;;;;4995361;28;19984;-77
2022/04/03 05:04:43;;;;;;;;;;;0.80;99.90;;;;;;4995837;28;19925;-77
2022/04/03 05:07:09;;;;;;;;;;;0.80;99.90;;;;;;4993839;28;19984;-78
2022/04/03 05:09:35;;;;;;;;;;;0.80;99.90;;;;;;5000224;28;19947;-78
2022/04/03 05:12:00;;;;;;;;;;;0.90;99.90;;;;;;4996416;28;19965;-78
2022/04/03 05:14:26;;;;;;;;;;;0.90;99.90;;;;;;5015308;28;19921;-79
2022/04/03 05:16:51;;;;;;;;;;;0.90;99.90;;;;;;5009886;28;20008;-79
2022/04/03 05:20:14;;;;;;;;;;;1.00;99.90;;;;;;5007144;23;20403;-79
2022/04/03 05:22:39;;;;;;;;;;;1.00;99.90;;;;;;4936613;29;20290;-79
2022/04/03 05:25:15;;;;;;;;;;;1.10;99.90;;;;;;4933168;28;20035;-79
2022/04/03 05:27:51;;;;;;;;;;;1.10;99.90;;;;;;4994092;28;19922;-79
2022/04/03 05:30:17;;;;;;;;;;;1.10;99.90;;;;;;4998624;28;20429;-79
2022/04/03 05:32:42;;;;;;;;;;;1.20;99.90;;;;;;5015601;28;19968;-79
2022/04/03 05:35:08;;;;;;;;;;;1.20;99.90;;;;;;5014822;28;20358;-77
2022/04/03 05:37:34;;;;;;;;;;;1.20;99.90;;;;;;5003723;28;19929;-78
2022/04/03 05:39:59;;;;;;;;;;;1.20;99.90;;;;;;4978899;28;19921;-78
2022/04/03 05:42:25;;;;;;;;;;;1.20;99.90;;;;;;4994816;28;20311;-78
2022/04/03 05:44:51;;;;;;;;;;;1.20;99.90;;;;;;4994943;28;19922;-78
2022/04/03 05:47:17;;;;;;;;;;;1.10;99.90;;;;;;4994109;28;19922;-78
2022/04/03 05:49:43;;;;;;;;;;;1.10;99.90;;;;;;4978469;28;20346;-78
2022/04/03 05:52:08;;;;;;;;;;;1.00;99.90;;;;;;5013133;28;20044;-78
2022/04/03 05:54:34;;;;;;;;;;;1.00;99.90;;;;;;5014371;28;20011;-78
2022/04/03 05:56:59;;;;;;;;;;;1.00;99.90;;;;;;5000852;28;19921;-78
2022/04/03 05:59:25;;;;;;;;;;;1.00;99.90;;;;;;5025650;28;19921;-78
2022/04/03 06:01:50;;;;;;;;;;;1.00;99.90;;;;;;4994291;28;19975;-78
2022/04/03 06:04:16;;;;;;;;;;;1.10;99.90;;;;;;4994067;28;20312;-78
2022/04/03 06:06:41;;;;;;;;;;;1.10;99.90;;;;;;4993163;28;19928;-78
2022/04/03 06:09:07;;;;;;;;;;;1.20;99.90;;;;;;4994031;28;20262;-78
2022/04/03 06:11:33;;;;;;;;;;;1.10;99.90;;;;;;4994578;28;19922;-78
2022/04/03 06:14:00;;;;;;;;;;;1.20;99.90;;;;;;4994557;28;19987;-78
2022/04/03 06:16:25;;;;;;;;;;;1.20;99.90;;;;;;4993358;28;19922;-78
2022/04/03 06:18:53;;;;;;;;;;;1.30;99.90;;;;;;4995368;28;20363;-78
2022/04/03 06:21:19;;;;;;;;;;;1.30;99.90;;;;;;4997846;28;19928;-78
2022/04/03 06:23:44;;;;;;;;;;;1.40;99.90;;;;;;5014386;28;19936;-79
2022/04/03 06:26:10;;;;;;;;;;;1.50;99.90;;;;;;5009171;28;19937;-78
2022/04/03 06:28:35;;;;;;;;;;;1.50;99.90;;;;;;5012587;28;19950;-77
2022/04/03 06:31:01;;;;;;;;;;;1.70;99.90;;;;;;4988665;28;19928;-79
2022/04/03 06:33:27;;;;;;;;;;;1.80;99.90;;;;;;4996231;28;20346;-79
2022/04/03 06:35:53;;;;;;;;;;;1.80;99.90;;;;;;5022132;28;19976;-78
2022/04/03 06:38:18;;;;;;;;;;;1.80;99.90;;;;;;5013746;28;19922;-78
2022/04/03 06:40:46;;;;;;;;;;;1.80;99.90;;;;;;4994694;28;20305;-78
2022/04/03 06:43:12;;;;;;;;;;;1.80;99.90;;;;;;4994306;28;19984;-78
2022/04/03 06:45:37;;;;;;;;;;;1.80;99.90;;;;;;4993060;28;20398;-78
2022/04/03 06:48:03;;;;;;;;;;;1.80;99.90;;;;;;4995087;28;20413;-78
2022/04/03 06:50:29;;;;;;;;;;;1.80;99.90;;;;;;5013792;28;19983;-78
2022/04/03 06:52:54;;;;;;;;;;;1.80;99.90;;;;;;4990906;28;19972;-78
2022/04/03 06:55:20;;;;;;;;;;;1.80;99.90;;;;;;4992896;28;20416;-79
2022/04/03 06:57:45;;;;;;;;;;;1.70;99.90;;;;;;4992921;28;20088;-78
2022/04/03 07:00:13;;;;;;;;;;;1.70;99.90;;;;;;4993884;28;19964;-78
2022/04/03 07:02:38;;;;;;;;;;;1.80;99.90;;;;;;4993658;28;19980;-79
2022/04/03 07:05:04;;;;;;;;;;;1.90;99.90;;;;;;4997691;28;19972;-79
2022/04/03 07:07:30;;;;;;;;;;;2.00;99.90;;;;;;4999957;28;19929;-78
2022/04/03 07:09:55;;;;;;;;;;;2.10;99.90;;;;;;4998015;28;19925;-78
2022/04/03 07:12:21;;;;;;;;;;;2.20;99.90;;;;;;5015098;28;19929;-78
2022/04/03 07:14:47;;;;;;;;;;;2.20;99.90;;;;;;5015702;28;19922;-79
2022/04/03 07:17:13;;;;;;;;;;;2.30;99.90;;;;;;5013969;28;20423;-78
2022/04/03 07:19:39;;;;;;;;;;;2.30;99.90;;;;;;4996715;28;19975;-80
2022/04/03 07:22:04;;;;;;;;;;;2.40;99.90;;;;;;5001813;28;20413;-79
2022/04/03 07:24:30;;;;;;;;;;;2.50;99.90;;;;;;5006526;28;19921;-79
2022/04/03 07:26:55;;;;;;;;;;;2.70;99.90;;;;;;5001512;28;20053;-80
2022/04/03 07:29:21;;;;;;;;;;;2.90;99.90;;;;;;5000516;28;20368;-79
2022/04/03 07:31:47;;;;;;;;;;;3.00;99.90;;;;;;4997667;28;19980;-79
2022/04/03 07:34:12;;;;;;;;;;;3.20;99.90;;;;;;4998440;28;19921;-79
2022/04/03 07:36:38;;;;;;;;;;;3.30;99.90;;;;;;4997067;28;19921;-79
2022/04/03 07:39:04;;;;;;;;;;;3.40;99.90;;;;;;4996347;28;20051;-79
2022/04/03 07:41:29;;;;;;;;;;;3.60;99.90;;;;;;4997327;28;19975;-79
2022/04/03 07:43:55;;;;;;;;;;;3.70;99.90;;;;;;4996833;28;19971;-79
2022/04/03 07:46:21;;;;;;;;;;;3.90;99.90;;;;;;4996434;28;20371;-78
2022/04/03 07:48:46;;;;;;;;;;;4.10;99.90;;;;;;4998409;28;19994;-78
2022/04/03 07:51:12;;;;;;;;;;;4.30;99.90;;;;;;4996961;28;19921;-78
2022/04/03 07:53:38;;;;;;;;;;;4.50;99.90;;;;;;4996730;28;20335;-78
2022/04/03 07:56:07;;;;;;;;;;;4.60;99.90;;;;;;4996148;28;19928;-78
2022/04/03 07:58:36;;;;;;;;;;;4.80;99.90;;;;;;4996504;28;19950;-79
2022/04/03 08:01:02;;;;;;;;;;;4.80;99.90;;;;;;4978097;28;20376;-79
2022/04/03 08:03:28;;;;;;;;;;;4.80;99.90;;;;;;4978779;28;20048;-80
2022/04/03 08:05:54;;;;;;;;;;;4.90;99.90;;;;;;4994640;28;20280;-80
2022/04/03 08:08:19;;;;;;;;;;;4.90;99.90;;;;;;5000170;28;20039;-80
2022/04/03 08:10:45;;;;;;;;;;;5.00;99.90;;;;;;5008538;28;19953;-80
2022/04/03 08:13:10;;;;;;;;;;;5.10;99.90;;;;;;4999469;28;19922;-80
2022/04/03 08:15:36;;;;;;;;;;;5.30;99.90;;;;;;5001679;28;19925;-81
2022/04/03 08:18:02;;;;;;;;;;;5.40;99.90;;;;;;5010419;28;19987;-81
2022/04/03 08:20:27;;;;;;;;;;;5.60;99.90;;;;;;5004058;28;19925;-81
2022/04/03 08:22:53;;;;;;;;;;;5.70;99.90;;;;;;5000478;28;19925;-81
2022/04/03 08:25:19;;;;;;;;;;;5.80;99.90;;;;;;5004216;28;19969;-81
2022/04/03 08:27:48;;;;;;;;;;;5.90;99.90;;;;;;5003151;28;19974;-80
2022/04/03 08:30:15;;;;;;;;;;;6.00;99.90;;;;;;5022960;28;19968;-81
2022/04/03 08:32:41;;;;;;;;;;;6.00;99.90;;;;;;5011321;28;20004;-81
2022/04/03 08:35:07;;;;;;;;;;;6.00;99.90;;;;;;5004364;28;20268;-81
2022/04/03 08:37:34;;;;;;;;;;;6.20;99.90;;;;;;5002996;28;19922;-81
2022/04/03 08:39:59;;;;;;;;;;;6.40;99.90;;;;;;5001650;28;20016;-81
2022/04/03 08:42:25;;;;;;;;;;;6.50;99.90;;;;;;5008206;28;19960;-81
2022/04/03 08:44:50;;;;;;;;;;;6.70;99.90;;;;;;5004788;28;19929;-80
2022/04/03 08:47:17;;;;;;;;;;;6.80;99.90;;;;;;5006161;28;19989;-80
2022/04/03 08:49:43;;;;;;;;;;;6.90;99.90;;;;;;5006427;28;20012;-79
2022/04/03 08:52:09;;;;;;;;;;;7.00;99.90;;;;;;5006870;28;19929;-80
2022/04/03 08:54:36;;;;;;;;;;;7.00;99.90;;;;;;5005236;28;19922;-80
2022/04/03 08:57:02;;;;;;;;;;;7.10;99.90;;;;;;4987653;28;19928;-80
2022/04/03 08:59:27;;;;;;;;;;;7.30;99.90;;;;;;5002518;28;19921;-80
2022/04/03 09:01:53;;;;;;;;;;;7.50;99.90;;;;;;5001337;28;19974;-79
2022/04/03 09:04:20;;;;;;;;;;;7.50;99.90;;;;;;5001120;28;20425;-80
2022/04/03 09:06:56;;;;;;;;;;;7.40;99.90;;;;;;4998917;28;19925;-79
2022/04/03 09:09:22;;;;;;;;;;;7.50;99.90;;;;;;4996388;28;19922;-80
2022/04/03 09:12:07;;;;;;;;;;;7.40;99.90;;;;;;4980106;28;19962;-79
2022/04/03 09:14:33;;;;;;;;;;;7.70;99.90;;;;;;4996607;28;19929;-79
2022/04/03 09:16:58;;;;;;;;;;;8.10;99.90;;;;;;4995787;28;19921;-79
2022/04/03 09:19:31;;;;;;;;;;;8.20;99.90;;;;;;4997291;28;19971;-80
2022/04/03 09:21:57;;;;;;;;;;;8.30;99.90;;;;;;4995451;28;19929;-79
2022/04/03 09:24:22;;;;;;;;;;;8.40;99.90;;;;;;4995875;28;19928;-79
2022/04/03 09:26:56;;;;;;;;;;;8.30;99.90;;;;;;4994964;28;19928;-80
2022/04/03 09:29:22;;;;;;;;;;;8.40;99.90;;;;;;4995103;28;19929;-78
2022/04/03 09:31:47;;;;;;;;;;;8.30;99.90;;;;;;4996132;28;19921;-78
2022/04/03 09:34:19;;;;;;;;;;;8.30;99.90;;;;;;4996780;28;19926;-79
2022/04/03 09:37:01;;;;;;;;;;;8.60;99.90;;;;;;4996347;28;19921;-79
2022/04/03 09:39:28;;;;;;;;;;;8.80;99.90;;;;;;4996315;28;20364;-79
2022/04/03 09:42:02;;;;;;;;;;;8.70;98.60;;;;;;4995346;28;20425;-79
2022/04/03 09:44:40;;;;;;;;;;;8.30;99.90;;;;;;4995593;28;19922;-79
2022/04/03 09:47:15;;;;;;;;;;;8.00;99.90;;;;;;4994921;28;19925;-79
2022/04/03 09:49:42;;;;;;;;;;;7.80;99.90;;;;;;4995114;28;19929;-79
2022/04/03 09:52:09;;;;;;;;;;;7.60;99.90;;;;;;4995271;28;19921;-79
2022/04/03 09:54:36;;;;;;;;;;;7.40;99.90;;;;;;4995240;28;20350;-79
2022/04/03 09:57:18;;;;;;;;;;;7.30;99.90;;;;;;4992988;28;19921;-79
2022/04/03 09:59:50;;;;;;;;;;;7.10;99.90;;;;;;4991641;28;19922;-79
2022/04/03 10:02:16;;;;;;;;;;;6.90;99.90;;;;;;4994290;28;19948;-79
2022/04/03 10:04:43;;;;;;;;;;;6.90;99.90;;;;;;4989557;28;20012;-78
2022/04/03 10:07:12;;;;;;;;;;;6.90;99.90;;;;;;4978107;28;19922;-78
2022/04/03 10:09:46;;;;;;;;;;;7.20;99.90;;;;;;4994457;28;20392;-78
2022/04/03 10:12:15;;;;;;;;;;;7.80;99.90;;;;;;5010349;28;19929;-78
2022/04/03 10:14:42;;;;;;;;;;;8.50;99.90;;;;;;4993696;28;20004;-78
2022/04/03 10:17:07;;;;;;;;;;;9.10;99.90;;;;;;4994206;28;20052;-79
2022/04/03 10:19:33;;;;;;;;;;;9.80;99.90;;;;;;4993312;28;20013;-80
2022/04/03 10:21:59;;;;;;;;;;;10.10;91.10;;;;;;4974084;28;20377;-79
2022/04/03 10:24:25;;;;;;;;;;;9.70;91.80;;;;;;4986266;28;20009;-79
2022/04/03 10:26:56;;;;;;;;;;;9.10;86.80;;;;;;5008064;28;20459;-79
2022/04/03 10:29:22;;;;;;;;;;;8.50;92.50;;;;;;4992290;28;19921;-78
2022/04/03 10:31:55;;;;;;;;;;;8.10;95.90;;;;;;4993747;28;19921;-79
2022/04/03 10:34:21;;;;;;;;;;;7.90;93.90;;;;;;4992671;28;19922;-78
2022/04/03 10:36:47;;;;;;;;;;;7.60;91.80;;;;;;5012063;28;20016;-78
2022/04/03 10:39:20;;;;;;;;;;;7.30;95.90;;;;;;4993325;28;19921;-78
2022/04/03 10:41:46;;;;;;;;;;;7.20;94.90;;;;;;4993531;28;19933;-78
2022/04/03 10:44:25;;;;;;;;;;;7.10;97.20;;;;;;4991536;28;19921;-78
2022/04/03 10:47:03;;;;;;;;;;;7.20;98.30;;;;;;5006197;28;19928;-78
2022/04/03 10:49:37;;;;;;;;;;;7.50;96.50;;;;;;4996821;28;19935;-79
2022/04/03 10:52:22;;;;;;;;;;;8.10;93.70;;;;;;5013192;28;19922;-78
2022/04/03 10:54:51;;;;;;;;;;;8.50;91.90;;;;;;4993372;28;19921;-78
2022/04/03 10:57:36;;;;;;;;;;;8.90;79.70;;;;;;4976552;28;19925;-79
2022/04/03 11:00:14;;;;;;;;;;;9.10;91.80;;;;;;4992976;28;20001;-78
2022/04/03 11:02:43;;;;;;;;;;;9.50;86.00;;;;;;4992648;28;19929;-79
2022/04/03 11:05:21;;;;;;;;;;;9.80;92.10;;;;;;5000273;28;19921;-79
2022/04/03 11:07:50;;;;;;;;;;;10.00;86.80;;;;;;4992527;28;20356;-79
2022/04/03 11:10:35;;;;;;;;;;;10.40;93.40;;;;;;4993431;28;20368;-78
2022/04/03 11:13:01;;;;;;;;;;;10.50;79.30;;;;;;4975835;28;19922;-79
2022/04/03 11:15:27;;;;;;;;;;;10.00;93.60;;;;;;4995558;28;20293;-78
2022/04/03 11:17:53;;;;;;;;;;;9.60;93.90;;;;;;4993076;28;20391;-78
2022/04/03 11:20:51;;;;;;;;;;;9.00;96.60;;;;;;4992898;28;19957;-78
2022/04/03 11:23:18;;;;;;;;;;;9.00;95.20;;;;;;4957008;28;19929;-78
2022/04/03 11:25:44;;;;;;;;;;;9.50;97.60;;;;;;4990233;28;19953;-78
2022/04/03 11:28:10;;;;;;;;;;;10.20;96.90;;;;;;4976382;28;19980;-78
2022/04/03 11:30:35;;;;;;;;;;;10.40;94.30;;;;;;4976807;28;19933;-78
2022/04/03 11:33:02;;;;;;;;;;;10.10;82.50;;;;;;5024593;23;19996;-77
2022/04/03 11:35:32;;;;;;;;;;;9.70;92.60;;;;;;4991004;28;20115;-77
2022/04/03 11:37:57;;;;;;;;;;;9.20;85.00;;;;;;4992633;28;19921;-77
2022/04/03 11:40:23;;;;;;;;;;;8.80;88.00;;;;;;4975917;28;19975;-77
2022/04/03 11:42:49;;;;;;;;;;;8.60;90.60;;;;;;4999432;28;19926;-77
2022/04/03 11:45:14;;;;;;;;;;;8.50;91.50;;;;;;5002813;28;19926;-77
2022/04/03 11:47:40;;;;;;;;;;;8.50;90.30;;;;;;4997789;28;19921;-78
2022/04/03 11:50:05;;;;;;;;;;;8.60;92.30;;;;;;4993256;28;20600;-78
2022/04/03 11:52:35;;;;;;;;;;;9.10;95.10;;;;;;4995715;28;19944;-78
2022/04/03 11:55:00;;;;;;;;;;;9.70;83.40;;;;;;5000046;28;20288;-77
2022/04/03 11:57:26;;;;;;;;;;;9.60;95.00;;;;;;4998211;28;20027;-77
2022/04/03 11:59:53;;;;;;;;;;;8.90;95.10;;;;;;4981699;28;20314;-77
2022/04/03 12:02:19;;;;;;;;;;;8.20;99.80;;;;;;4993729;28;19931;-77
2022/04/03 12:04:44;;;;;;;;;;;7.60;99.90;;;;;;5003875;28;20110;-77
2022/04/03 12:07:14;;;;;;;;;;;7.20;99.90;;;;;;4995670;28;20303;-78
2022/04/03 12:09:43;;;;;;;;;;;6.90;99.90;;;;;;4996036;28;20205;-78
2022/04/03 12:12:09;;;;;;;;;;;6.70;99.90;;;;;;4999229;28;20278;-79
2022/04/03 12:14:36;;;;;;;;;;;6.70;99.90;;;;;;4999610;28;19921;-79
2022/04/03 12:17:03;;;;;;;;;;;6.60;99.90;;;;;;4979529;28;19921;-78
2022/04/03 12:19:30;;;;;;;;;;;6.60;99.90;;;;;;4979315;28;20399;-79
2022/04/03 12:21:56;;;;;;;;;;;6.60;99.90;;;;;;4994968;28;19929;-79
2022/04/03 12:24:23;;;;;;;;;;;6.70;99.90;;;;;;4996057;28;19921;-78
2022/04/03 12:26:49;;;;;;;;;;;6.80;99.90;;;;;;4979566;28;20011;-78
2022/04/03 12:29:14;;;;;;;;;;;6.70;99.90;;;;;;4994378;28;20009;-78
2022/04/03 12:31:40;;;;;;;;;;;6.80;99.90;;;;;;4994499;28;20237;-77
2022/04/03 12:34:05;;;;;;;;;;;6.90;99.90;;;;;;4994302;28;19922;-78
2022/04/03 12:36:43;;;;;;;;;;;7.10;99.90;;;;;;4993864;28;19944;-78
2022/04/03 12:39:27;;;;;;;;;;;7.40;99.90;;;;;;4987819;28;20335;-78
2022/04/03 12:41:53;;;;;;;;;;;8.30;99.90;;;;;;4993853;28;20024;-78
2022/04/03 12:44:19;;;;;;;;;;;9.20;99.90;;;;;;4995860;28;20004;-78
2022/04/03 12:46:48;;;;;;;;;;;9.80;98.20;;;;;;4993085;28;19968;-77
2022/04/03 12:49:17;;;;;;;;;;;10.00;93.80;;;;;;4995455;28;20017;-78
2022/04/03 12:51:46;;;;;;;;;;;9.90;92.20;;;;;;4995429;28;19972;-77
2022/04/03 12:54:12;;;;;;;;;;;10.10;93.20;;;;;;4995192;28;19983;-78
2022/04/03 12:59:22;;;;;;;;;;;9.70;90.80;;;;;;4990209;28;19976;-78
2022/04/03 13:01:55;;;;;;;;;;;9.40;91.70;;;;;;4994977;28;19937;-77
2022/04/03 13:04:31;;;;;;;;;;;9.10;92.30;;;;;;4995341;28;19926;-78
2022/04/03 13:06:57;;;;;;;;;;;8.90;92.10;;;;;;4973096;28;19973;-77
2022/04/03 13:09:22;;;;;;;;;;;8.90;91.30;;;;;;4991419;28;19972;-77
2022/04/03 13:11:49;;;;;;;;;;;9.00;89.10;;;;;;4994684;28;19929;-78
2022/04/03 13:14:17;;;;;;;;;;;9.00;90.00;;;;;;4994426;28;20295;-78
2022/04/03 13:16:43;;;;;;;;;;;8.90;88.00;;;;;;4994858;28;19921;-77
2022/04/03 13:19:09;;;;;;;;;;;8.80;88.50;;;;;;4994870;28;20414;-78
2022/04/03 13:21:37;;;;;;;;;;;8.70;88.20;;;;;;4994556;28;19928;-78
2022/04/03 13:24:04;;;;;;;;;;;8.70;89.50;;;;;;4992068;28;19922;-77
2022/04/03 13:26:30;;;;;;;;;;;8.70;81.60;;;;;;4978264;28;19925;-78
2022/04/03 13:28:55;;;;;;;;;;;8.80;77.00;;;;;;4994293;28;20299;-77
2022/04/03 13:31:21;;;;;;;;;;;8.80;73.50;;;;;;4997293;28;20363;-78
2022/04/03 13:33:46;;;;;;;;;;;9.00;68.50;;;;;;4995527;28;19928;-77
2022/04/03 13:36:13;;;;;;;;;;;9.60;71.80;;;;;;4996164;28;21512;-78
2022/04/03 13:38:39;;;;;;;;;;;10.40;68.90;;;;;;5014321;28;20417;-78
2022/04/03 13:41:04;;;;;;;;;;;10.90;74.00;;;;;;5011317;28;19925;-75
2022/04/03 13:43:30;;;;;;;;;;;11.20;70.30;;;;;;5010808;28;20342;-74
2022/04/03 13:46:00;;;;;;;;;;;11.00;70.20;;;;;;5007112;28;19965;-73
2022/04/03 13:48:30;;;;;;;;;;;10.80;65.50;;;;;;4987750;28;20196;-73
2022/04/03 13:50:57;;;;;;;;;;;10.90;68.90;;;;;;4994773;28;20064;-73
2022/04/03 13:53:22;;;;;;;;;;;10.90;66.70;;;;;;4992260;28;19921;-73
2022/04/03 13:55:48;;;;;;;;;;;10.50;69.80;;;;;;4991094;28;20474;-73
2022/04/03 13:58:13;;;;;;;;;;;10.00;73.20;;;;;;5005453;28;19925;-72
2022/04/03 14:00:39;;;;;;;;;;;9.60;75.90;;;;;;4994241;28;20012;-72
2022/04/03 14:03:05;;;;;;;;;;;8.90;78.30;;;;;;4992369;28;20679;-72
2022/04/03 14:05:30;;;;;;;;;;;8.50;83.40;;;;;;4994221;28;20303;-73
2022/04/03 14:07:56;;;;;;;;;;;8.50;86.70;;;;;;4993065;28;19922;-73
2022/04/03 14:10:21;;;;;;;;;;;8.60;88.70;;;;;;4993952;28;19928;-73
2022/04/03 14:12:48;;;;;;;;;;;9.20;90.40;;;;;;4992790;28;19975;-73
2022/04/03 14:15:13;;;;;;;;;;;10.00;85.40;;;;;;4993697;28;20403;-73
2022/04/03 14:17:39;;;;;;;;;;;10.60;83.50;;;;;;4993544;28;19969;-74
2022/04/03 14:20:05;;;;;;;;;;;11.00;78.10;;;;;;4976830;28;19967;-72
2022/04/03 14:22:31;;;;;;;;;;;11.40;74.00;;;;;;4992616;28;20307;-73
2022/04/03 14:24:56;;;;;;;;;;;11.80;71.20;;;;;;4992742;28;20291;-73
2022/04/03 14:27:22;;;;;;;;;;;11.40;67.30;;;;;;4993098;28;19921;-73
2022/04/03 14:29:47;;;;;;;;;;;11.00;70.10;;;;;;4991833;28;19921;-73
2022/04/03 14:32:13;;;;;;;;;;;10.70;69.70;;;;;;4992416;28;19977;-73